sensor_id;sensor_type;location;lat;lon;timestamp;P1;P2;P0
70554;PMS5003;58104;52.744;15.242;2023-05-27T00:02:10;14;12;
70554;PMS5003;58104;52.744;15.242;2023-05-27T00:04:36;16;13;
70554;PMS5003;58104;52.744;15.242;2023-05-27T00:07:02;13;13;
70554;PMS5003;58104;52.744;15.242;2023-05-27T00:09:27;11;11;
70554;PMS5003;58104;52.744;15.242;2023-05-27T00:11:53;14;11;
70554;PMS5003;58104;52.744;15.242;2023-05-27T00:14:18;13;11;
70554;PMS5003;58104;52.744;15.242;2023-05-27T00:16:43;13;13;
70554;PMS5003;58104;52.744;15.242;2023-05-27T00:19:09;14;11;
70554;PMS5003;58104;52.744;15.242;2023-05-27T00:21:34;12;10;
70554;PMS5003;58104;52.744;15.242;2023-05-27T00:24:00;10;10;
70554;PMS5003;58104;52.744;15.242;2023-05-27T00:26:25;10;9;
70554;PMS5003;58104;52.744;15.242;2023-05-27T00:28:51;19;9;
70554;PMS5003;58104;52.744;15.242;2023-05-27T00:31:16;18;15;
70554;PMS5003;58104;52.744;15.242;2023-05-27T00:33:41;13;13;
70554;PMS5003;58104;52.744;15.242;2023-05-27T00:36:07;13;10;
70554;PMS5003;58104;52.744;15.242;2023-05-27T00:38:33;13;12;
70554;PMS5003;58104;52.744;15.242;2023-05-27T00:40:58;11;11;
70554;PMS5003;58104;52.744;15.242;2023-05-27T00:43:23;15;10;
70554;PMS5003;58104;52.744;15.242;2023-05-27T00:45:49;20;18;
70554;PMS5003;58104;52.744;15.242;2023-05-27T00:48:14;13;13;
70554;PMS5003;58104;52.744;15.242;2023-05-27T00:50:40;11;11;
70554;PMS5003;58104;52.744;15.242;2023-05-27T00:53:05;13;11;
70554;PMS5003;58104;52.744;15.242;2023-05-27T00:55:30;11;11;
70554;PMS5003;58104;52.744;15.242;2023-05-27T00:57:56;12;12;
70554;PMS5003;58104;52.744;15.242;2023-05-27T01:00:21;18;13;
70554;PMS5003;58104;52.744;15.242;2023-05-27T01:02:47;15;12;
70554;PMS5003;58104;52.744;15.242;2023-05-27T01:05:13;12;11;
70554;PMS5003;58104;52.744;15.242;2023-05-27T01:07:40;12;11;
70554;PMS5003;58104;52.744;15.242;2023-05-27T01:10:05;14;12;
70554;PMS5003;58104;52.744;15.242;2023-05-27T01:12:29;14;9;
70554;PMS5003;58104;52.744;15.242;2023-05-27T01:14:54;14;13;
70554;PMS5003;58104;52.744;15.242;2023-05-27T01:17:19;14;13;
70554;PMS5003;58104;52.744;15.242;2023-05-27T01:19:44;15;14;
70554;PMS5003;58104;52.744;15.242;2023-05-27T01:22:09;16;12;
70554;PMS5003;58104;52.744;15.242;2023-05-27T01:24:35;19;12;
70554;PMS5003;58104;52.744;15.242;2023-05-27T01:27:00;15;13;
70554;PMS5003;58104;52.744;15.242;2023-05-27T01:29:25;12;11;
70554;PMS5003;58104;52.744;15.242;2023-05-27T01:31:54;23;16;
70554;PMS5003;58104;52.744;15.242;2023-05-27T01:34:17;11;11;
70554;PMS5003;58104;52.744;15.242;2023-05-27T01:36:43;12;11;
70554;PMS5003;58104;52.744;15.242;2023-05-27T01:39:08;10;9;
70554;PMS5003;58104;52.744;15.242;2023-05-27T01:41:32;11;11;
70554;PMS5003;58104;52.744;15.242;2023-05-27T01:43:58;18;14;
70554;PMS5003;58104;52.744;15.242;2023-05-27T01:46:23;13;10;
70554;PMS5003;58104;52.744;15.242;2023-05-27T01:48:49;15;12;
70554;PMS5003;58104;52.744;15.242;2023-05-27T01:51:14;14;13;
70554;PMS5003;58104;52.744;15.242;2023-05-27T01:53:39;14;14;
70554;PMS5003;58104;52.744;15.242;2023-05-27T01:56:04;13;11;
70554;PMS5003;58104;52.744;15.242;2023-05-27T01:58:30;14;12;
70554;PMS5003;58104;52.744;15.242;2023-05-27T02:00:56;17;16;
70554;PMS5003;58104;52.744;15.242;2023-05-27T02:03:21;13;9;
70554;PMS5003;58104;52.744;15.242;2023-05-27T02:05:46;16;12;
70554;PMS5003;58104;52.744;15.242;2023-05-27T02:08:12;12;12;
70554;PMS5003;58104;52.744;15.242;2023-05-27T02:10:37;12;12;
70554;PMS5003;58104;52.744;15.242;2023-05-27T02:13:03;11;11;
70554;PMS5003;58104;52.744;15.242;2023-05-27T02:15:28;14;11;
70554;PMS5003;58104;52.744;15.242;2023-05-27T02:17:54;17;13;
70554;PMS5003;58104;52.744;15.242;2023-05-27T02:20:19;17;13;
70554;PMS5003;58104;52.744;15.242;2023-05-27T02:22:45;13;12;
70554;PMS5003;58104;52.744;15.242;2023-05-27T02:25:10;19;15;
70554;PMS5003;58104;52.744;15.242;2023-05-27T02:27:36;13;12;
70554;PMS5003;58104;52.744;15.242;2023-05-27T02:30:01;19;13;
70554;PMS5003;58104;52.744;15.242;2023-05-27T02:32:26;12;11;
70554;PMS5003;58104;52.744;15.242;2023-05-27T02:34:52;12;11;
70554;PMS5003;58104;52.744;15.242;2023-05-27T02:37:17;12;12;
70554;PMS5003;58104;52.744;15.242;2023-05-27T02:39:43;14;11;
70554;PMS5003;58104;52.744;15.242;2023-05-27T02:42:08;14;14;
70554;PMS5003;58104;52.744;15.242;2023-05-27T02:44:33;15;12;
70554;PMS5003;58104;52.744;15.242;2023-05-27T02:46:59;14;10;
70554;PMS5003;58104;52.744;15.242;2023-05-27T02:49:24;12;11;
70554;PMS5003;58104;52.744;15.242;2023-05-27T02:51:50;16;12;
70554;PMS5003;58104;52.744;15.242;2023-05-27T02:54:15;12;11;
70554;PMS5003;58104;52.744;15.242;2023-05-27T02:56:40;16;13;
70554;PMS5003;58104;52.744;15.242;2023-05-27T02:59:06;17;12;
70554;PMS5003;58104;52.744;15.242;2023-05-27T03:01:31;13;11;
70554;PMS5003;58104;52.744;15.242;2023-05-27T03:03:57;24;17;
70554;PMS5003;58104;52.744;15.242;2023-05-27T03:06:22;15;13;
70554;PMS5003;58104;52.744;15.242;2023-05-27T03:08:48;11;11;
70554;PMS5003;58104;52.744;15.242;2023-05-27T03:11:14;15;13;
70554;PMS5003;58104;52.744;15.242;2023-05-27T03:13:39;16;14;
70554;PMS5003;58104;52.744;15.242;2023-05-27T03:16:04;14;13;
70554;PMS5003;58104;52.744;15.242;2023-05-27T03:18:29;13;12;
70554;PMS5003;58104;52.744;15.242;2023-05-27T03:20:55;13;11;
70554;PMS5003;58104;52.744;15.242;2023-05-27T03:23:21;20;18;
70554;PMS5003;58104;52.744;15.242;2023-05-27T03:25:46;16;13;
70554;PMS5003;58104;52.744;15.242;2023-05-27T03:28:12;13;13;
70554;PMS5003;58104;52.744;15.242;2023-05-27T03:30:37;13;12;
70554;PMS5003;58104;52.744;15.242;2023-05-27T03:33:02;14;12;
70554;PMS5003;58104;52.744;15.242;2023-05-27T03:35:28;17;15;
70554;PMS5003;58104;52.744;15.242;2023-05-27T03:37:53;13;13;
70554;PMS5003;58104;52.744;15.242;2023-05-27T03:40:18;17;12;
70554;PMS5003;58104;52.744;15.242;2023-05-27T03:42:44;11;11;
70554;PMS5003;58104;52.744;15.242;2023-05-27T03:45:09;14;14;
70554;PMS5003;58104;52.744;15.242;2023-05-27T03:47:34;16;12;
70554;PMS5003;58104;52.744;15.242;2023-05-27T03:50:00;15;14;
70554;PMS5003;58104;52.744;15.242;2023-05-27T03:52:25;16;15;
70554;PMS5003;58104;52.744;15.242;2023-05-27T03:54:50;16;15;
70554;PMS5003;58104;52.744;15.242;2023-05-27T03:57:16;14;11;
70554;PMS5003;58104;52.744;15.242;2023-05-27T03:59:42;20;16;
70554;PMS5003;58104;52.744;15.242;2023-05-27T04:02:07;14;14;
70554;PMS5003;58104;52.744;15.242;2023-05-27T04:04:32;16;15;
70554;PMS5003;58104;52.744;15.242;2023-05-27T04:06:57;16;16;
70554;PMS5003;58104;52.744;15.242;2023-05-27T04:09:23;21;18;
70554;PMS5003;58104;52.744;15.242;2023-05-27T04:11:48;15;12;
70554;PMS5003;58104;52.744;15.242;2023-05-27T04:14:14;14;14;
70554;PMS5003;58104;52.744;15.242;2023-05-27T04:16:39;11;10;
70554;PMS5003;58104;52.744;15.242;2023-05-27T04:19:05;14;14;
70554;PMS5003;58104;52.744;15.242;2023-05-27T04:21:30;17;14;
70554;PMS5003;58104;52.744;15.242;2023-05-27T04:23:56;14;13;
70554;PMS5003;58104;52.744;15.242;2023-05-27T04:26:21;21;18;
70554;PMS5003;58104;52.744;15.242;2023-05-27T04:28:47;19;15;
70554;PMS5003;58104;52.744;15.242;2023-05-27T04:31:12;14;14;
70554;PMS5003;58104;52.744;15.242;2023-05-27T04:33:38;17;12;
70554;PMS5003;58104;52.744;15.242;2023-05-27T04:36:03;15;15;
70554;PMS5003;58104;52.744;15.242;2023-05-27T04:38:28;16;14;
70554;PMS5003;58104;52.744;15.242;2023-05-27T04:41:00;16;13;
70554;PMS5003;58104;52.744;15.242;2023-05-27T04:43:20;12;12;
70554;PMS5003;58104;52.744;15.242;2023-05-27T04:45:45;12;10;
70554;PMS5003;58104;52.744;15.242;2023-05-27T04:48:10;14;13;
70554;PMS5003;58104;52.744;15.242;2023-05-27T04:50:36;13;13;
70554;PMS5003;58104;52.744;15.242;2023-05-27T04:53:01;14;12;
70554;PMS5003;58104;52.744;15.242;2023-05-27T04:55:26;13;11;
70554;PMS5003;58104;52.744;15.242;2023-05-27T04:57:51;15;15;
70554;PMS5003;58104;52.744;15.242;2023-05-27T05:00:17;15;14;
70554;PMS5003;58104;52.744;15.242;2023-05-27T05:02:43;15;14;
70554;PMS5003;58104;52.744;15.242;2023-05-27T05:05:08;15;12;
70554;PMS5003;58104;52.744;15.242;2023-05-27T05:07:34;19;16;
70554;PMS5003;58104;52.744;15.242;2023-05-27T05:09:59;18;14;
70554;PMS5003;58104;52.744;15.242;2023-05-27T05:12:25;17;12;
70554;PMS5003;58104;52.744;15.242;2023-05-27T05:14:51;16;14;
70554;PMS5003;58104;52.744;15.242;2023-05-27T05:17:15;15;12;
70554;PMS5003;58104;52.744;15.242;2023-05-27T05:19:41;20;15;
70554;PMS5003;58104;52.744;15.242;2023-05-27T05:22:06;14;13;
70554;PMS5003;58104;52.744;15.242;2023-05-27T05:24:32;13;11;
70554;PMS5003;58104;52.744;15.242;2023-05-27T05:26:57;16;14;
70554;PMS5003;58104;52.744;15.242;2023-05-27T05:29:23;16;14;
70554;PMS5003;58104;52.744;15.242;2023-05-27T05:31:48;15;13;
70554;PMS5003;58104;52.744;15.242;2023-05-27T05:34:13;14;11;
70554;PMS5003;58104;52.744;15.242;2023-05-27T05:36:39;16;15;
70554;PMS5003;58104;52.744;15.242;2023-05-27T05:39:04;19;16;
70554;PMS5003;58104;52.744;15.242;2023-05-27T05:41:29;15;13;
70554;PMS5003;58104;52.744;15.242;2023-05-27T05:43:55;17;12;
70554;PMS5003;58104;52.744;15.242;2023-05-27T05:46:20;11;11;
70554;PMS5003;58104;52.744;15.242;2023-05-27T05:48:45;14;14;
70554;PMS5003;58104;52.744;15.242;2023-05-27T05:51:11;16;16;
70554;PMS5003;58104;52.744;15.242;2023-05-27T05:53:37;14;12;
70554;PMS5003;58104;52.744;15.242;2023-05-27T05:56:02;13;10;
70554;PMS5003;58104;52.744;15.242;2023-05-27T05:58:28;13;11;
70554;PMS5003;58104;52.744;15.242;2023-05-27T06:00:53;19;13;
70554;PMS5003;58104;52.744;15.242;2023-05-27T06:03:19;18;15;
70554;PMS5003;58104;52.744;15.242;2023-05-27T06:05:44;17;12;
70554;PMS5003;58104;52.744;15.242;2023-05-27T06:08:10;12;11;
70554;PMS5003;58104;52.744;15.242;2023-05-27T06:10:35;14;14;
70554;PMS5003;58104;52.744;15.242;2023-05-27T06:13:00;16;16;
70554;PMS5003;58104;52.744;15.242;2023-05-27T06:15:25;13;11;
70554;PMS5003;58104;52.744;15.242;2023-05-27T06:17:50;14;13;
70554;PMS5003;58104;52.744;15.242;2023-05-27T06:20:16;12;11;
70554;PMS5003;58104;52.744;15.242;2023-05-27T06:22:41;12;12;
70554;PMS5003;58104;52.744;15.242;2023-05-27T06:25:06;9;8;
70554;PMS5003;58104;52.744;15.242;2023-05-27T06:27:31;11;9;
70554;PMS5003;58104;52.744;15.242;2023-05-27T06:29:57;10;9;
70554;PMS5003;58104;52.744;15.242;2023-05-27T06:32:22;8;8;
70554;PMS5003;58104;52.744;15.242;2023-05-27T06:34:48;14;10;
70554;PMS5003;58104;52.744;15.242;2023-05-27T06:37:13;9;9;
70554;PMS5003;58104;52.744;15.242;2023-05-27T06:39:38;11;11;
70554;PMS5003;58104;52.744;15.242;2023-05-27T06:42:04;10;9;
70554;PMS5003;58104;52.744;15.242;2023-05-27T06:44:29;11;10;
70554;PMS5003;58104;52.744;15.242;2023-05-27T06:46:55;11;8;
70554;PMS5003;58104;52.744;15.242;2023-05-27T06:49:20;8;6;
70554;PMS5003;58104;52.744;15.242;2023-05-27T06:51:46;8;8;
70554;PMS5003;58104;52.744;15.242;2023-05-27T06:54:11;10;10;
70554;PMS5003;58104;52.744;15.242;2023-05-27T06:56:37;11;9;
70554;PMS5003;58104;52.744;15.242;2023-05-27T06:59:02;9;9;
70554;PMS5003;58104;52.744;15.242;2023-05-27T07:01:28;9;8;
70554;PMS5003;58104;52.744;15.242;2023-05-27T07:03:53;9;7;
70554;PMS5003;58104;52.744;15.242;2023-05-27T07:06:19;8;6;
70554;PMS5003;58104;52.744;15.242;2023-05-27T07:08:44;8;7;
70554;PMS5003;58104;52.744;15.242;2023-05-27T07:11:10;9;9;
70554;PMS5003;58104;52.744;15.242;2023-05-27T07:13:35;10;10;
70554;PMS5003;58104;52.744;15.242;2023-05-27T07:16:00;12;8;
70554;PMS5003;58104;52.744;15.242;2023-05-27T07:18:25;7;7;
70554;PMS5003;58104;52.744;15.242;2023-05-27T07:20:51;10;8;
70554;PMS5003;58104;52.744;15.242;2023-05-27T07:23:17;15;13;
70554;PMS5003;58104;52.744;15.242;2023-05-27T07:25:42;9;8;
70554;PMS5003;58104;52.744;15.242;2023-05-27T07:28:08;11;11;
70554;PMS5003;58104;52.744;15.242;2023-05-27T07:30:33;14;11;
70554;PMS5003;58104;52.744;15.242;2023-05-27T07:32:58;10;9;
70554;PMS5003;58104;52.744;15.242;2023-05-27T07:35:24;6;6;
70554;PMS5003;58104;52.744;15.242;2023-05-27T07:37:49;9;9;
70554;PMS5003;58104;52.744;15.242;2023-05-27T07:40:15;13;9;
70554;PMS5003;58104;52.744;15.242;2023-05-27T07:42:40;8;8;
70554;PMS5003;58104;52.744;15.242;2023-05-27T07:45:05;11;11;
70554;PMS5003;58104;52.744;15.242;2023-05-27T07:47:30;15;12;
70554;PMS5003;58104;52.744;15.242;2023-05-27T07:49:55;16;11;
70554;PMS5003;58104;52.744;15.242;2023-05-27T07:52:21;13;11;
70554;PMS5003;58104;52.744;15.242;2023-05-27T07:54:46;10;10;
70554;PMS5003;58104;52.744;15.242;2023-05-27T07:57:11;8;8;
70554;PMS5003;58104;52.744;15.242;2023-05-27T07:59:37;12;9;
70554;PMS5003;58104;52.744;15.242;2023-05-27T08:02:03;11;8;
70554;PMS5003;58104;52.744;15.242;2023-05-27T08:04:28;10;8;
70554;PMS5003;58104;52.744;15.242;2023-05-27T08:06:53;11;7;
70554;PMS5003;58104;52.744;15.242;2023-05-27T08:09:19;13;8;
70554;PMS5003;58104;52.744;15.242;2023-05-27T08:11:44;9;8;
70554;PMS5003;58104;52.744;15.242;2023-05-27T08:14:09;10;7;
70554;PMS5003;58104;52.744;15.242;2023-05-27T08:16:35;7;7;
70554;PMS5003;58104;52.744;15.242;2023-05-27T08:19:00;10;8;
70554;PMS5003;58104;52.744;15.242;2023-05-27T08:21:26;8;8;
70554;PMS5003;58104;52.744;15.242;2023-05-27T08:23:51;8;7;
70554;PMS5003;58104;52.744;15.242;2023-05-27T08:26:16;9;9;
70554;PMS5003;58104;52.744;15.242;2023-05-27T08:28:42;9;8;
70554;PMS5003;58104;52.744;15.242;2023-05-27T08:31:07;9;7;
70554;PMS5003;58104;52.744;15.242;2023-05-27T08:33:32;6;5;
70554;PMS5003;58104;52.744;15.242;2023-05-27T08:35:58;7;7;
70554;PMS5003;58104;52.744;15.242;2023-05-27T08:38:23;5;5;
70554;PMS5003;58104;52.744;15.242;2023-05-27T08:40:48;6;6;
70554;PMS5003;58104;52.744;15.242;2023-05-27T08:43:14;7;7;
70554;PMS5003;58104;52.744;15.242;2023-05-27T08:45:39;4;4;
70554;PMS5003;58104;52.744;15.242;2023-05-27T08:48:05;6;6;
70554;PMS5003;58104;52.744;15.242;2023-05-27T08:50:30;6;6;
70554;PMS5003;58104;52.744;15.242;2023-05-27T08:52:55;5;5;
70554;PMS5003;58104;52.744;15.242;2023-05-27T08:55:21;8;6;
70554;PMS5003;58104;52.744;15.242;2023-05-27T08:57:48;9;7;
70554;PMS5003;58104;52.744;15.242;2023-05-27T09:00:12;6;5;
70554;PMS5003;58104;52.744;15.242;2023-05-27T09:02:37;6;6;
70554;PMS5003;58104;52.744;15.242;2023-05-27T09:05:03;6;5;
70554;PMS5003;58104;52.744;15.242;2023-05-27T09:07:28;5;5;
70554;PMS5003;58104;52.744;15.242;2023-05-27T09:09:55;3;3;
70554;PMS5003;58104;52.744;15.242;2023-05-27T09:12:23;6;4;
70554;PMS5003;58104;52.744;15.242;2023-05-27T09:14:44;4;4;
70554;PMS5003;58104;52.744;15.242;2023-05-27T09:17:09;7;6;
70554;PMS5003;58104;52.744;15.242;2023-05-27T09:19:35;10;6;
70554;PMS5003;58104;52.744;15.242;2023-05-27T09:22:00;8;6;
70554;PMS5003;58104;52.744;15.242;2023-05-27T09:24:26;6;3;
70554;PMS5003;58104;52.744;15.242;2023-05-27T09:26:51;5;4;
70554;PMS5003;58104;52.744;15.242;2023-05-27T09:29:17;3;3;
70554;PMS5003;58104;52.744;15.242;2023-05-27T09:31:42;7;5;
70554;PMS5003;58104;52.744;15.242;2023-05-27T09:34:09;6;4;
70554;PMS5003;58104;52.744;15.242;2023-05-27T09:36:33;3;3;
70554;PMS5003;58104;52.744;15.242;2023-05-27T09:38:58;5;5;
70554;PMS5003;58104;52.744;15.242;2023-05-27T09:41:24;5;4;
70554;PMS5003;58104;52.744;15.242;2023-05-27T09:46:14;3;3;
70554;PMS5003;58104;52.744;15.242;2023-05-27T09:48:39;3;3;
70554;PMS5003;58104;52.744;15.242;2023-05-27T09:51:05;5;5;
70554;PMS5003;58104;52.744;15.242;2023-05-27T09:53:30;2;2;
70554;PMS5003;58104;52.744;15.242;2023-05-27T09:55:56;4;4;
70554;PMS5003;58104;52.744;15.242;2023-05-27T09:58:21;9;5;
70554;PMS5003;58104;52.744;15.242;2023-05-27T10:00:47;7;5;
70554;PMS5003;58104;52.744;15.242;2023-05-27T10:03:12;6;5;
70554;PMS5003;58104;52.744;15.242;2023-05-27T10:05:37;6;6;
70554;PMS5003;58104;52.744;15.242;2023-05-27T10:08:03;7;4;
70554;PMS5003;58104;52.744;15.242;2023-05-27T10:10:28;4;4;
70554;PMS5003;58104;52.744;15.242;2023-05-27T10:12:54;5;4;
70554;PMS5003;58104;52.744;15.242;2023-05-27T10:15:21;5;5;
70554;PMS5003;58104;52.744;15.242;2023-05-27T10:17:46;6;5;
70554;PMS5003;58104;52.744;15.242;2023-05-27T10:20:10;6;4;
70554;PMS5003;58104;52.744;15.242;2023-05-27T10:22:38;6;4;
70554;PMS5003;58104;52.744;15.242;2023-05-27T10:27:26;5;4;
70554;PMS5003;58104;52.744;15.242;2023-05-27T10:32:17;3;3;
70554;PMS5003;58104;52.744;15.242;2023-05-27T10:34:43;7;4;
70554;PMS5003;58104;52.744;15.242;2023-05-27T10:37:08;4;4;
70554;PMS5003;58104;52.744;15.242;2023-05-27T10:39:33;2;2;
70554;PMS5003;58104;52.744;15.242;2023-05-27T10:41:59;3;3;
70554;PMS5003;58104;52.744;15.242;2023-05-27T10:44:25;3;3;
70554;PMS5003;58104;52.744;15.242;2023-05-27T10:46:50;6;5;
70554;PMS5003;58104;52.744;15.242;2023-05-27T10:49:16;5;5;
70554;PMS5003;58104;52.744;15.242;2023-05-27T10:51:41;5;5;
70554;PMS5003;58104;52.744;15.242;2023-05-27T10:54:06;4;4;
70554;PMS5003;58104;52.744;15.242;2023-05-27T10:56:31;4;3;
70554;PMS5003;58104;52.744;15.242;2023-05-27T10:58:56;5;4;
70554;PMS5003;58104;52.744;15.242;2023-05-27T11:01:22;4;4;
70554;PMS5003;58104;52.744;15.242;2023-05-27T11:03:47;4;3;
70554;PMS5003;58104;52.744;15.242;2023-05-27T11:06:13;3;3;
70554;PMS5003;58104;52.744;15.242;2023-05-27T11:08:38;4;3;
70554;PMS5003;58104;52.744;15.242;2023-05-27T11:11:05;5;4;
70554;PMS5003;58104;52.744;15.242;2023-05-27T11:13:30;5;5;
70554;PMS5003;58104;52.744;15.242;2023-05-27T11:15:54;4;4;
70554;PMS5003;58104;52.744;15.242;2023-05-27T11:18:20;3;3;
70554;PMS5003;58104;52.744;15.242;2023-05-27T11:20:46;4;4;
70554;PMS5003;58104;52.744;15.242;2023-05-27T11:23:11;9;5;
70554;PMS5003;58104;52.744;15.242;2023-05-27T11:28:01;3;3;
70554;PMS5003;58104;52.744;15.242;2023-05-27T11:30:27;6;4;
70554;PMS5003;58104;52.744;15.242;2023-05-27T11:32:53;3;3;
70554;PMS5003;58104;52.744;15.242;2023-05-27T11:35:18;3;3;
70554;PMS5003;58104;52.744;15.242;2023-05-27T11:37:45;3;3;
70554;PMS5003;58104;52.744;15.242;2023-05-27T11:40:10;5;5;
70554;PMS5003;58104;52.744;15.242;2023-05-27T11:42:34;4;4;
70554;PMS5003;58104;52.744;15.242;2023-05-27T11:44:59;5;5;
70554;PMS5003;58104;52.744;15.242;2023-05-27T11:47:25;5;4;
70554;PMS5003;58104;52.744;15.242;2023-05-27T11:49:50;4;4;
70554;PMS5003;58104;52.744;15.242;2023-05-27T11:52:15;5;5;
70554;PMS5003;58104;52.744;15.242;2023-05-27T11:54:41;7;4;
70554;PMS5003;58104;52.744;15.242;2023-05-27T11:57:06;6;4;
70554;PMS5003;58104;52.744;15.242;2023-05-27T11:59:33;5;4;
70554;PMS5003;58104;52.744;15.242;2023-05-27T12:01:57;3;3;
70554;PMS5003;58104;52.744;15.242;2023-05-27T12:04:23;3;3;
70554;PMS5003;58104;52.744;15.242;2023-05-27T12:06:48;4;3;
70554;PMS5003;58104;52.744;15.242;2023-05-27T12:09:13;5;5;
70554;PMS5003;58104;52.744;15.242;2023-05-27T12:11:39;3;3;
70554;PMS5003;58104;52.744;15.242;2023-05-27T12:14:04;4;4;
70554;PMS5003;58104;52.744;15.242;2023-05-27T12:16:30;3;3;
70554;PMS5003;58104;52.744;15.242;2023-05-27T12:18:55;3;3;
70554;PMS5003;58104;52.744;15.242;2023-05-27T12:21:21;5;5;
70554;PMS5003;58104;52.744;15.242;2023-05-27T12:23:46;2;2;
70554;PMS5003;58104;52.744;15.242;2023-05-27T12:26:12;5;5;
70554;PMS5003;58104;52.744;15.242;2023-05-27T12:28:37;5;3;
70554;PMS5003;58104;52.744;15.242;2023-05-27T12:31:07;5;5;
70554;PMS5003;58104;52.744;15.242;2023-05-27T12:33:28;5;4;
70554;PMS5003;58104;52.744;15.242;2023-05-27T12:35:53;8;5;
70554;PMS5003;58104;52.744;15.242;2023-05-27T12:38:18;3;3;
70554;PMS5003;58104;52.744;15.242;2023-05-27T12:40:44;5;5;
70554;PMS5003;58104;52.744;15.242;2023-05-27T12:43:09;5;2;
70554;PMS5003;58104;52.744;15.242;2023-05-27T12:45:35;3;3;
70554;PMS5003;58104;52.744;15.242;2023-05-27T12:48:00;7;5;
70554;PMS5003;58104;52.744;15.242;2023-05-27T12:50:25;4;3;
70554;PMS5003;58104;52.744;15.242;2023-05-27T12:52:51;5;3;
70554;PMS5003;58104;52.744;15.242;2023-05-27T12:55:17;4;4;
70554;PMS5003;58104;52.744;15.242;2023-05-27T12:57:42;4;4;
70554;PMS5003;58104;52.744;15.242;2023-05-27T13:00:07;7;4;
70554;PMS5003;58104;52.744;15.242;2023-05-27T13:02:32;3;3;
70554;PMS5003;58104;52.744;15.242;2023-05-27T13:04:58;3;3;
70554;PMS5003;58104;52.744;15.242;2023-05-27T13:07:23;4;4;
70554;PMS5003;58104;52.744;15.242;2023-05-27T13:09:48;3;3;
70554;PMS5003;58104;52.744;15.242;2023-05-27T13:12:14;5;4;
70554;PMS5003;58104;52.744;15.242;2023-05-27T13:14:39;5;3;
70554;PMS5003;58104;52.744;15.242;2023-05-27T13:17:05;5;4;
70554;PMS5003;58104;52.744;15.242;2023-05-27T13:19:30;6;4;
70554;PMS5003;58104;52.744;15.242;2023-05-27T13:21:56;9;4;
70554;PMS5003;58104;52.744;15.242;2023-05-27T13:24:21;4;4;
70554;PMS5003;58104;52.744;15.242;2023-05-27T13:26:46;3;2;
70554;PMS5003;58104;52.744;15.242;2023-05-27T13:29:12;7;6;
70554;PMS5003;58104;52.744;15.242;2023-05-27T13:31:37;4;4;
70554;PMS5003;58104;52.744;15.242;2023-05-27T13:34:03;4;4;
70554;PMS5003;58104;52.744;15.242;2023-05-27T13:36:28;5;3;
70554;PMS5003;58104;52.744;15.242;2023-05-27T13:38:53;5;5;
70554;PMS5003;58104;52.744;15.242;2023-05-27T13:41:19;4;4;
70554;PMS5003;58104;52.744;15.242;2023-05-27T13:43:44;2;2;
70554;PMS5003;58104;52.744;15.242;2023-05-27T13:46:10;3;3;
70554;PMS5003;58104;52.744;15.242;2023-05-27T13:48:35;5;5;
70554;PMS5003;58104;52.744;15.242;2023-05-27T13:51:01;6;6;
70554;PMS5003;58104;52.744;15.242;2023-05-27T13:53:26;5;5;
70554;PMS5003;58104;52.744;15.242;2023-05-27T13:55:52;4;4;
70554;PMS5003;58104;52.744;15.242;2023-05-27T13:58:17;7;5;
70554;PMS5003;58104;52.744;15.242;2023-05-27T14:00:42;3;3;
70554;PMS5003;58104;52.744;15.242;2023-05-27T14:03:08;4;4;
70554;PMS5003;58104;52.744;15.242;2023-05-27T14:05:33;9;4;
70554;PMS5003;58104;52.744;15.242;2023-05-27T14:07:59;5;5;
70554;PMS5003;58104;52.744;15.242;2023-05-27T14:10:25;6;5;
70554;PMS5003;58104;52.744;15.242;2023-05-27T14:12:49;7;5;
70554;PMS5003;58104;52.744;15.242;2023-05-27T14:15:15;8;5;
70554;PMS5003;58104;52.744;15.242;2023-05-27T14:17:40;4;4;
70554;PMS5003;58104;52.744;15.242;2023-05-27T14:20:06;6;6;
70554;PMS5003;58104;52.744;15.242;2023-05-27T14:22:31;8;7;
70554;PMS5003;58104;52.744;15.242;2023-05-27T14:24:56;6;5;
70554;PMS5003;58104;52.744;15.242;2023-05-27T14:27:22;5;5;
70554;PMS5003;58104;52.744;15.242;2023-05-27T14:29:47;6;4;
70554;PMS5003;58104;52.744;15.242;2023-05-27T14:32:12;5;5;
70554;PMS5003;58104;52.744;15.242;2023-05-27T14:34:43;4;4;
70554;PMS5003;58104;52.744;15.242;2023-05-27T14:37:04;5;5;
70554;PMS5003;58104;52.744;15.242;2023-05-27T14:39:29;7;5;
70554;PMS5003;58104;52.744;15.242;2023-05-27T14:41:54;5;5;
70554;PMS5003;58104;52.744;15.242;2023-05-27T14:44:20;9;8;
70554;PMS5003;58104;52.744;15.242;2023-05-27T14:46:45;6;5;
70554;PMS5003;58104;52.744;15.242;2023-05-27T14:49:10;4;4;
70554;PMS5003;58104;52.744;15.242;2023-05-27T14:51:35;8;6;
70554;PMS5003;58104;52.744;15.242;2023-05-27T14:54:01;7;6;
70554;PMS5003;58104;52.744;15.242;2023-05-27T14:56:27;7;7;
70554;PMS5003;58104;52.744;15.242;2023-05-27T14:58:52;9;6;
70554;PMS5003;58104;52.744;15.242;2023-05-27T15:01:17;6;5;
70554;PMS5003;58104;52.744;15.242;2023-05-27T15:03:42;6;6;
70554;PMS5003;58104;52.744;15.242;2023-05-27T15:06:08;8;7;
70554;PMS5003;58104;52.744;15.242;2023-05-27T15:08:33;8;6;
70554;PMS5003;58104;52.744;15.242;2023-05-27T15:10:59;6;6;
70554;PMS5003;58104;52.744;15.242;2023-05-27T15:13:25;6;6;
70554;PMS5003;58104;52.744;15.242;2023-05-27T15:15:49;6;6;
70554;PMS5003;58104;52.744;15.242;2023-05-27T15:18:15;8;7;
70554;PMS5003;58104;52.744;15.242;2023-05-27T15:20:40;8;8;
70554;PMS5003;58104;52.744;15.242;2023-05-27T15:23:06;9;6;
70554;PMS5003;58104;52.744;15.242;2023-05-27T15:25:31;7;5;
70554;PMS5003;58104;52.744;15.242;2023-05-27T15:27:56;9;6;
70554;PMS5003;58104;52.744;15.242;2023-05-27T15:30:22;9;6;
70554;PMS5003;58104;52.744;15.242;2023-05-27T15:32:47;5;5;
70554;PMS5003;58104;52.744;15.242;2023-05-27T15:35:13;7;7;
70554;PMS5003;58104;52.744;15.242;2023-05-27T15:37:38;5;5;
70554;PMS5003;58104;52.744;15.242;2023-05-27T15:40:04;8;8;
70554;PMS5003;58104;52.744;15.242;2023-05-27T15:42:29;7;6;
70554;PMS5003;58104;52.744;15.242;2023-05-27T15:44:54;5;5;
70554;PMS5003;58104;52.744;15.242;2023-05-27T15:47:20;7;5;
70554;PMS5003;58104;52.744;15.242;2023-05-27T15:49:45;9;6;
70554;PMS5003;58104;52.744;15.242;2023-05-27T15:52:11;10;7;
70554;PMS5003;58104;52.744;15.242;2023-05-27T15:54:36;7;7;
70554;PMS5003;58104;52.744;15.242;2023-05-27T15:57:02;9;7;
70554;PMS5003;58104;52.744;15.242;2023-05-27T15:59:27;7;7;
70554;PMS5003;58104;52.744;15.242;2023-05-27T16:01:57;11;7;
70554;PMS5003;58104;52.744;15.242;2023-05-27T16:04:17;12;9;
70554;PMS5003;58104;52.744;15.242;2023-05-27T16:06:43;9;9;
70554;PMS5003;58104;52.744;15.242;2023-05-27T16:09:08;10;7;
70554;PMS5003;58104;52.744;15.242;2023-05-27T16:11:34;9;8;
70554;PMS5003;58104;52.744;15.242;2023-05-27T16:13:59;10;6;
70554;PMS5003;58104;52.744;15.242;2023-05-27T16:16:25;7;7;